sensor_id;sensor_type;location;lat;lon;timestamp;pressure;altitude;pressure_sealevel;temperature;humidity
31082;BME280;17737;52.586;13.284;2023-03-14T00:00:25;98767.41;;;11.99;76.59
31082;BME280;17737;52.586;13.284;2023-03-14T00:02:53;98768.09;;;11.94;76.83
31082;BME280;17737;52.586;13.284;2023-03-14T00:05:21;98764.03;;;11.85;76.83
31082;BME280;17737;52.586;13.284;2023-03-14T00:07:49;98764.19;;;11.90;76.67
31082;BME280;17737;52.586;13.284;2023-03-14T00:10:17;98748.00;;;11.90;76.77
31082;BME280;17737;52.586;13.284;2023-03-14T00:12:46;98750.03;;;11.77;76.85
31082;BME280;17737;52.586;13.284;2023-03-14T00:15:14;98763.28;;;11.78;76.80
31082;BME280;17737;52.586;13.284;2023-03-14T00:17:44;98758.66;;;11.85;76.55
31082;BME280;17737;52.586;13.284;2023-03-14T00:20:12;98745.25;;;11.79;76.76
31082;BME280;17737;52.586;13.284;2023-03-14T00:22:41;98733.22;;;11.75;76.53
31082;BME280;17737;52.586;13.284;2023-03-14T00:25:10;98725.91;;;11.64;77.12
31082;BME280;17737;52.586;13.284;2023-03-14T00:27:39;98715.31;;;11.62;77.02
31082;BME280;17737;52.586;13.284;2023-03-14T00:30:08;98714.31;;;11.57;77.13
31082;BME280;17737;52.586;13.284;2023-03-14T00:32:36;98704.78;;;11.54;77.37
31082;BME280;17737;52.586;13.284;2023-03-14T00:35:07;98697.84;;;11.47;77.59
31082;BME280;17737;52.586;13.284;2023-03-14T00:37:35;98689.59;;;11.42;77.85
31082;BME280;17737;52.586;13.284;2023-03-14T00:40:04;98688.25;;;11.51;77.03
31082;BME280;17737;52.586;13.284;2023-03-14T00:42:33;98688.31;;;11.44;77.63
31082;BME280;17737;52.586;13.284;2023-03-14T00:45:02;98699.69;;;11.46;77.07
31082;BME280;17737;52.586;13.284;2023-03-14T00:47:31;98698.00;;;11.52;76.89
31082;BME280;17737;52.586;13.284;2023-03-14T00:49:59;98683.06;;;11.49;77.33
31082;BME280;17737;52.586;13.284;2023-03-14T00:52:29;98684.19;;;11.42;77.72
31082;BME280;17737;52.586;13.284;2023-03-14T00:54:57;98683.75;;;11.45;77.51
31082;BME280;17737;52.586;13.284;2023-03-14T00:57:24;98665.78;;;11.39;77.72
31082;BME280;17737;52.586;13.284;2023-03-14T00:59:52;98665.09;;;11.43;77.61
31082;BME280;17737;52.586;13.284;2023-03-14T01:02:21;98666.03;;;11.31;78.08
31082;BME280;17737;52.586;13.284;2023-03-14T01:04:49;98674.22;;;11.24;78.55
31082;BME280;17737;52.586;13.284;2023-03-14T01:07:17;98655.56;;;11.23;78.44
31082;BME280;17737;52.586;13.284;2023-03-14T01:09:46;98649.56;;;11.21;78.55
31082;BME280;17737;52.586;13.284;2023-03-14T01:12:14;98641.72;;;11.19;78.41
31082;BME280;17737;52.586;13.284;2023-03-14T01:14:42;98658.09;;;11.18;78.59
31082;BME280;17737;52.586;13.284;2023-03-14T01:17:10;98669.56;;;11.13;79.21
31082;BME280;17737;52.586;13.284;2023-03-14T01:19:38;98680.03;;;11.03;79.30
31082;BME280;17737;52.586;13.284;2023-03-14T01:22:06;98689.28;;;11.07;79.28
31082;BME280;17737;52.586;13.284;2023-03-14T01:24:34;98704.38;;;11.15;79.00
31082;BME280;17737;52.586;13.284;2023-03-14T01:27:05;98724.94;;;11.09;79.39
31082;BME280;17737;52.586;13.284;2023-03-14T01:29:33;98724.50;;;11.12;79.36
31082;BME280;17737;52.586;13.284;2023-03-14T01:32:01;98732.34;;;11.14;79.55
31082;BME280;17737;52.586;13.284;2023-03-14T01:34:30;98729.09;;;11.12;79.19
31082;BME280;17737;52.586;13.284;2023-03-14T01:36:58;98728.84;;;11.13;79.66
31082;BME280;17737;52.586;13.284;2023-03-14T01:39:26;98725.56;;;11.11;79.36
31082;BME280;17737;52.586;13.284;2023-03-14T01:41:55;98723.94;;;11.04;79.65
31082;BME280;17737;52.586;13.284;2023-03-14T01:44:24;98724.78;;;11.04;79.63
31082;BME280;17737;52.586;13.284;2023-03-14T01:46:52;98737.09;;;11.18;79.07
31082;BME280;17737;52.586;13.284;2023-03-14T01:49:24;98739.34;;;11.21;79.26
31082;BME280;17737;52.586;13.284;2023-03-14T01:51:59;98747.00;;;11.24;79.09
31082;BME280;17737;52.586;13.284;2023-03-14T01:54:34;98745.50;;;11.28;78.76
31082;BME280;17737;52.586;13.284;2023-03-14T01:57:08;98735.81;;;11.21;79.23
31082;BME280;17737;52.586;13.284;2023-03-14T01:59:46;98728.13;;;11.24;78.99
31082;BME280;17737;52.586;13.284;2023-03-14T02:02:20;98723.56;;;11.25;78.89
31082;BME280;17737;52.586;13.284;2023-03-14T02:04:49;98716.34;;;11.19;79.33
31082;BME280;17737;52.586;13.284;2023-03-14T02:07:22;98709.59;;;11.10;79.70
31082;BME280;17737;52.586;13.284;2023-03-14T02:09:55;98711.47;;;11.09;79.90
31082;BME280;17737;52.586;13.284;2023-03-14T02:12:25;98710.53;;;11.22;79.09
31082;BME280;17737;52.586;13.284;2023-03-14T02:14:56;98707.53;;;11.12;79.36
31082;BME280;17737;52.586;13.284;2023-03-14T02:17:24;98707.34;;;11.07;79.15
31082;BME280;17737;52.586;13.284;2023-03-14T02:20:24;98708.09;;;11.14;79.58
31082;BME280;17737;52.586;13.284;2023-03-14T02:22:58;98710.25;;;11.05;79.34
31082;BME280;17737;52.586;13.284;2023-03-14T02:25:34;98704.06;;;11.05;79.46
31082;BME280;17737;52.586;13.284;2023-03-14T02:28:11;98691.16;;;11.07;79.90
31082;BME280;17737;52.586;13.284;2023-03-14T02:30:40;98697.94;;;11.16;79.02
31082;BME280;17737;52.586;13.284;2023-03-14T02:33:11;98685.97;;;11.12;79.13
31082;BME280;17737;52.586;13.284;2023-03-14T02:35:48;98684.91;;;11.13;78.97
31082;BME280;17737;52.586;13.284;2023-03-14T02:38:23;98685.66;;;11.20;78.35
31082;BME280;17737;52.586;13.284;2023-03-14T02:40:57;98675.66;;;11.27;78.25
31082;BME280;17737;52.586;13.284;2023-03-14T02:43:26;98683.34;;;11.23;78.56
31082;BME280;17737;52.586;13.284;2023-03-14T02:45:54;98680.66;;;11.23;78.27
31082;BME280;17737;52.586;13.284;2023-03-14T02:48:25;98659.31;;;11.22;78.81
31082;BME280;17737;52.586;13.284;2023-03-14T02:50:57;98663.03;;;11.21;78.53
31082;BME280;17737;52.586;13.284;2023-03-14T02:53:29;98657.28;;;11.17;78.28
31082;BME280;17737;52.586;13.284;2023-03-14T02:55:59;98656.72;;;11.09;78.83
31082;BME280;17737;52.586;13.284;2023-03-14T02:58:29;98650.97;;;11.05;78.85
31082;BME280;17737;52.586;13.284;2023-03-14T03:00:57;98641.53;;;10.96;78.88
31082;BME280;17737;52.586;13.284;2023-03-14T03:03:26;98630.31;;;10.99;78.80
31082;BME280;17737;52.586;13.284;2023-03-14T03:05:55;98629.31;;;10.94;78.99
31082;BME280;17737;52.586;13.284;2023-03-14T03:08:25;98608.59;;;10.94;78.74
31082;BME280;17737;52.586;13.284;2023-03-14T03:10:54;98608.22;;;10.91;78.99
31082;BME280;17737;52.586;13.284;2023-03-14T03:13:24;98618.84;;;10.85;79.01
31082;BME280;17737;52.586;13.284;2023-03-14T03:15:54;98609.28;;;10.90;79.23
31082;BME280;17737;52.586;13.284;2023-03-14T03:18:23;98604.31;;;10.86;78.91
31082;BME280;17737;52.586;13.284;2023-03-14T03:20:51;98609.09;;;10.84;78.87
31082;BME280;17737;52.586;13.284;2023-03-14T03:23:19;98603.34;;;10.81;79.22
31082;BME280;17737;52.586;13.284;2023-03-14T03:25:50;98597.72;;;10.82;79.02
31082;BME280;17737;52.586;13.284;2023-03-14T03:28:19;98604.75;;;10.83;78.67
31082;BME280;17737;52.586;13.284;2023-03-14T03:30:47;98614.31;;;10.79;78.66
31082;BME280;17737;52.586;13.284;2023-03-14T03:33:16;98627.38;;;10.82;78.43
31082;BME280;17737;52.586;13.284;2023-03-14T03:35:45;98611.13;;;10.89;78.52
31082;BME280;17737;52.586;13.284;2023-03-14T03:38:16;98620.63;;;10.92;78.31
31082;BME280;17737;52.586;13.284;2023-03-14T03:40:46;98620.25;;;10.88;78.35
31082;BME280;17737;52.586;13.284;2023-03-14T03:43:14;98626.84;;;10.92;77.73
31082;BME280;17737;52.586;13.284;2023-03-14T03:45:42;98618.84;;;10.85;77.73
31082;BME280;17737;52.586;13.284;2023-03-14T03:48:10;98623.44;;;10.78;78.72
31082;BME280;17737;52.586;13.284;2023-03-14T03:50:45;98600.44;;;10.82;78.29
31082;BME280;17737;52.586;13.284;2023-03-14T03:53:13;98612.22;;;10.81;77.96
31082;BME280;17737;52.586;13.284;2023-03-14T03:55:56;98603.81;;;10.71;78.29
31082;BME280;17737;52.586;13.284;2023-03-14T03:58:24;98607.34;;;10.72;78.02
31082;BME280;17737;52.586;13.284;2023-03-14T04:00:52;98609.66;;;10.68;78.16
31082;BME280;17737;52.586;13.284;2023-03-14T04:03:20;98609.38;;;10.76;77.99
31082;BME280;17737;52.586;13.284;2023-03-14T04:05:59;98609.00;;;10.73;78.25
31082;BME280;17737;52.586;13.284;2023-03-14T04:08:28;98627.03;;;10.72;77.69
31082;BME280;17737;52.586;13.284;2023-03-14T04:10:56;98602.84;;;10.66;78.29
31082;BME280;17737;52.586;13.284;2023-03-14T04:13:25;98601.59;;;10.68;77.50
31082;BME280;17737;52.586;13.284;2023-03-14T04:15:54;98619.75;;;10.73;77.23
31082;BME280;17737;52.586;13.284;2023-03-14T04:18:25;98614.16;;;10.74;76.69
31082;BME280;17737;52.586;13.284;2023-03-14T04:20:58;98601.53;;;10.75;76.69
31082;BME280;17737;52.586;13.284;2023-03-14T04:23:26;98603.53;;;10.79;76.40
31082;BME280;17737;52.586;13.284;2023-03-14T04:25:54;98604.81;;;10.77;76.94
31082;BME280;17737;52.586;13.284;2023-03-14T04:28:22;98603.53;;;10.79;76.17
31082;BME280;17737;52.586;13.284;2023-03-14T04:30:50;98599.88;;;10.74;76.71
31082;BME280;17737;52.586;13.284;2023-03-14T04:33:18;98592.59;;;10.74;76.43
31082;BME280;17737;52.586;13.284;2023-03-14T04:35:46;98578.75;;;10.71;76.67
31082;BME280;17737;52.586;13.284;2023-03-14T04:38:18;98573.44;;;10.64;76.95
31082;BME280;17737;52.586;13.284;2023-03-14T04:40:45;98569.72;;;10.65;76.99
31082;BME280;17737;52.586;13.284;2023-03-14T04:43:13;98563.13;;;10.61;76.57
31082;BME280;17737;52.586;13.284;2023-03-14T04:45:42;98566.78;;;10.67;76.62
31082;BME280;17737;52.586;13.284;2023-03-14T04:48:10;98551.81;;;10.71;75.98
31082;BME280;17737;52.586;13.284;2023-03-14T04:50:39;98543.75;;;10.71;76.13
31082;BME280;17737;52.586;13.284;2023-03-14T04:53:07;98542.56;;;10.67;76.03
31082;BME280;17737;52.586;13.284;2023-03-14T04:55:36;98543.22;;;10.62;76.68
31082;BME280;17737;52.586;13.284;2023-03-14T04:58:04;98541.56;;;10.61;76.30
31082;BME280;17737;52.586;13.284;2023-03-14T05:00:32;98554.59;;;10.64;75.89
31082;BME280;17737;52.586;13.284;2023-03-14T05:03:00;98556.19;;;10.72;75.45
31082;BME280;17737;52.586;13.284;2023-03-14T05:05:28;98560.13;;;10.69;75.59
31082;BME280;17737;52.586;13.284;2023-03-14T05:07:56;98565.28;;;10.71;75.63
31082;BME280;17737;52.586;13.284;2023-03-14T05:10:25;98555.97;;;10.73;75.07
31082;BME280;17737;52.586;13.284;2023-03-14T05:12:55;98544.19;;;10.68;75.40
31082;BME280;17737;52.586;13.284;2023-03-14T05:15:23;98543.31;;;10.74;74.72
31082;BME280;17737;52.586;13.284;2023-03-14T05:17:51;98544.88;;;10.63;75.65
31082;BME280;17737;52.586;13.284;2023-03-14T05:20:21;98542.63;;;10.60;75.72
31082;BME280;17737;52.586;13.284;2023-03-14T05:22:49;98536.50;;;10.71;75.11
31082;BME280;17737;52.586;13.284;2023-03-14T05:25:17;98536.50;;;10.71;74.78
31082;BME280;17737;52.586;13.284;2023-03-14T05:27:45;98543.97;;;10.69;75.03
31082;BME280;17737;52.586;13.284;2023-03-14T05:30:14;98532.16;;;10.70;74.83
31082;BME280;17737;52.586;13.284;2023-03-14T05:32:42;98539.13;;;10.78;74.72
31082;BME280;17737;52.586;13.284;2023-03-14T05:35:10;98539.34;;;10.76;74.64
31082;BME280;17737;52.586;13.284;2023-03-14T05:37:38;98533.34;;;10.74;74.10
31082;BME280;17737;52.586;13.284;2023-03-14T05:40:07;98535.88;;;10.69;74.54
31082;BME280;17737;52.586;13.284;2023-03-14T05:42:36;98532.16;;;10.70;74.07
31082;BME280;17737;52.586;13.284;2023-03-14T05:45:05;98537.72;;;10.75;74.18
31082;BME280;17737;52.586;13.284;2023-03-14T05:47:36;98537.09;;;10.73;73.96
31082;BME280;17737;52.586;13.284;2023-03-14T05:50:05;98532.97;;;10.71;74.04
31082;BME280;17737;52.586;13.284;2023-03-14T05:52:33;98545.72;;;10.82;73.65
31082;BME280;17737;52.586;13.284;2023-03-14T05:55:01;98533.72;;;10.78;73.28
31082;BME280;17737;52.586;13.284;2023-03-14T05:57:29;98531.88;;;10.78;72.86
31082;BME280;17737;52.586;13.284;2023-03-14T05:59:57;98532.25;;;10.82;72.73
31082;BME280;17737;52.586;13.284;2023-03-14T06:02:25;98535.78;;;10.82;73.02
31082;BME280;17737;52.586;13.284;2023-03-14T06:04:55;98537.03;;;10.80;72.77
31082;BME280;17737;52.586;13.284;2023-03-14T06:07:23;98533.47;;;10.86;72.66
31082;BME280;17737;52.586;13.284;2023-03-14T06:09:51;98542.56;;;10.85;71.94
31082;BME280;17737;52.586;13.284;2023-03-14T06:12:19;98529.94;;;10.85;71.84
31082;BME280;17737;52.586;13.284;2023-03-14T06:14:47;98524.09;;;10.88;72.13
31082;BME280;17737;52.586;13.284;2023-03-14T06:17:15;98527.63;;;10.89;71.82
31082;BME280;17737;52.586;13.284;2023-03-14T06:19:43;98516.63;;;10.91;71.72
31082;BME280;17737;52.586;13.284;2023-03-14T06:22:13;98521.31;;;10.95;71.72
31082;BME280;17737;52.586;13.284;2023-03-14T06:24:41;98528.75;;;11.00;70.94
31082;BME280;17737;52.586;13.284;2023-03-14T06:27:09;98532.47;;;10.99;71.45
31082;BME280;17737;52.586;13.284;2023-03-14T06:29:37;98534.28;;;11.05;70.92
31082;BME280;17737;52.586;13.284;2023-03-14T06:32:04;98526.56;;;11.08;70.53
31082;BME280;17737;52.586;13.284;2023-03-14T06:34:33;98525.88;;;11.13;70.32
31082;BME280;17737;52.586;13.284;2023-03-14T06:37:01;98525.81;;;11.19;70.08
31082;BME280;17737;52.586;13.284;2023-03-14T06:39:30;98529.78;;;11.17;70.21
31082;BME280;17737;52.586;13.284;2023-03-14T06:41:58;98546.91;;;11.22;69.92
31082;BME280;17737;52.586;13.284;2023-03-14T06:44:26;98547.88;;;11.28;69.20
31082;BME280;17737;52.586;13.284;2023-03-14T06:46:54;98551.19;;;11.30;69.43
31082;BME280;17737;52.586;13.284;2023-03-14T06:49:22;98552.41;;;11.34;69.53
31082;BME280;17737;52.586;13.284;2023-03-14T06:51:50;98548.19;;;11.38;69.14
31082;BME280;17737;52.586;13.284;2023-03-14T06:54:18;98551.69;;;11.38;69.17
31082;BME280;17737;52.586;13.284;2023-03-14T06:56:47;98554.78;;;11.42;68.74
31082;BME280;17737;52.586;13.284;2023-03-14T06:59:15;98562.78;;;11.48;68.62
31082;BME280;17737;52.586;13.284;2023-03-14T07:01:43;98558.72;;;11.57;68.17
31082;BME280;17737;52.586;13.284;2023-03-14T07:04:11;98558.66;;;11.64;68.06
31082;BME280;17737;52.586;13.284;2023-03-14T07:06:42;98558.66;;;11.64;68.09
31082;BME280;17737;52.586;13.284;2023-03-14T07:09:13;98576.06;;;11.61;68.26
31082;BME280;17737;52.586;13.284;2023-03-14T07:11:43;98575.84;;;11.63;67.83
31082;BME280;17737;52.586;13.284;2023-03-14T07:14:13;98577.22;;;11.54;68.37
31082;BME280;17737;52.586;13.284;2023-03-14T07:16:41;98569.75;;;11.56;68.44
31082;BME280;17737;52.586;13.284;2023-03-14T07:19:09;98575.44;;;11.48;68.75
31082;BME280;17737;52.586;13.284;2023-03-14T07:21:37;98572.59;;;11.43;68.82
31082;BME280;17737;52.586;13.284;2023-03-14T07:24:05;98580.03;;;11.47;68.56
31082;BME280;17737;52.586;13.284;2023-03-14T07:26:33;98580.22;;;11.46;68.71
31082;BME280;17737;52.586;13.284;2023-03-14T07:29:01;98588.91;;;11.48;68.60
31082;BME280;17737;52.586;13.284;2023-03-14T07:31:31;98581.34;;;11.56;68.48
31082;BME280;17737;52.586;13.284;2023-03-14T07:33:59;98588.03;;;11.54;68.58
31082;BME280;17737;52.586;13.284;2023-03-14T07:36:27;98586.13;;;11.54;68.57
31082;BME280;17737;52.586;13.284;2023-03-14T07:38:55;98589.78;;;11.60;68.68
31082;BME280;17737;52.586;13.284;2023-03-14T07:41:23;98596.72;;;11.74;68.03
31082;BME280;17737;52.586;13.284;2023-03-14T07:43:51;98593.78;;;11.75;67.78
31082;BME280;17737;52.586;13.284;2023-03-14T07:46:19;98592.88;;;11.81;67.45
31082;BME280;17737;52.586;13.284;2023-03-14T07:48:49;98589.34;;;11.81;67.48
31082;BME280;17737;52.586;13.284;2023-03-14T07:51:18;98589.50;;;11.86;67.50
31082;BME280;17737;52.586;13.284;2023-03-14T07:53:46;98598.78;;;11.90;67.13
31082;BME280;17737;52.586;13.284;2023-03-14T07:56:14;98594.59;;;12.05;67.21
31082;BME280;17737;52.586;13.284;2023-03-14T07:58:42;98603.56;;;12.18;66.59
31082;BME280;17737;52.586;13.284;2023-03-14T08:01:10;98603.75;;;12.34;66.28
31082;BME280;17737;52.586;13.284;2023-03-14T08:03:38;98592.84;;;12.52;65.51
31082;BME280;17737;52.586;13.284;2023-03-14T08:06:07;98585.69;;;12.81;64.59
31082;BME280;17737;52.586;13.284;2023-03-14T08:08:35;98583.34;;;12.61;64.88
31082;BME280;17737;52.586;13.284;2023-03-14T08:11:04;98589.91;;;12.65;64.77
31082;BME280;17737;52.586;13.284;2023-03-14T08:13:35;98588.50;;;12.51;64.92
31082;BME280;17737;52.586;13.284;2023-03-14T08:16:04;98585.22;;;12.61;64.91
31082;BME280;17737;52.586;13.284;2023-03-14T08:18:33;98571.34;;;12.57;64.89
31082;BME280;17737;52.586;13.284;2023-03-14T08:21:01;98580.88;;;12.60;64.90
31082;BME280;17737;52.586;13.284;2023-03-14T08:23:30;98591.88;;;12.47;64.86
31082;BME280;17737;52.586;13.284;2023-03-14T08:26:01;98583.31;;;12.38;65.44
31082;BME280;17737;52.586;13.284;2023-03-14T08:28:29;98594.09;;;12.38;65.92
31082;BME280;17737;52.586;13.284;2023-03-14T08:30:59;98592.22;;;12.27;66.69
31082;BME280;17737;52.586;13.284;2023-03-14T08:33:29;98592.09;;;12.22;66.78
31082;BME280;17737;52.586;13.284;2023-03-14T08:35:59;98589.25;;;12.17;66.38
31082;BME280;17737;52.586;13.284;2023-03-14T08:38:28;98593.09;;;12.10;66.54
31082;BME280;17737;52.586;13.284;2023-03-14T08:40:58;98594.59;;;12.05;67.17
31082;BME280;17737;52.586;13.284;2023-03-14T08:43:28;98603.38;;;12.01;67.65
31082;BME280;17737;52.586;13.284;2023-03-14T08:45:57;98602.81;;;12.11;67.36
31082;BME280;17737;52.586;13.284;2023-03-14T08:48:26;98602.38;;;12.14;67.40
31082;BME280;17737;52.586;13.284;2023-03-14T08:50:56;98608.59;;;12.14;67.25
31082;BME280;17737;52.586;13.284;2023-03-14T08:53:24;98602.53;;;12.30;66.52
31082;BME280;17737;52.586;13.284;2023-03-14T08:55:52;98604.91;;;12.38;66.01
31082;BME280;17737;52.586;13.284;2023-03-14T08:58:22;98599.00;;;12.30;66.15
31082;BME280;17737;52.586;13.284;2023-03-14T09:00:50;98609.94;;;12.35;66.15
31082;BME280;17737;52.586;13.284;2023-03-14T09:03:19;98601.28;;;12.44;66.30
31082;BME280;17737;52.586;13.284;2023-03-14T09:05:49;98606.34;;;12.52;65.67
31082;BME280;17737;52.586;13.284;2023-03-14T09:08:17;98616.97;;;12.77;65.18
31082;BME280;17737;52.586;13.284;2023-03-14T09:10:45;98602.03;;;12.74;64.48
31082;BME280;17737;52.586;13.284;2023-03-14T09:13:13;98600.75;;;12.77;64.52
31082;BME280;17737;52.586;13.284;2023-03-14T09:15:42;98588.88;;;12.78;64.50
31082;BME280;17737;52.586;13.284;2023-03-14T09:18:10;98586.19;;;12.66;64.10
31082;BME280;17737;52.586;13.284;2023-03-14T09:20:39;98580.41;;;12.86;64.12
31082;BME280;17737;52.586;13.284;2023-03-14T09:23:08;98581.72;;;13.06;63.60
31082;BME280;17737;52.586;13.284;2023-03-14T09:25:36;98579.63;;;13.08;62.92
31082;BME280;17737;52.586;13.284;2023-03-14T09:28:05;98574.25;;;13.37;62.11
31082;BME280;17737;52.586;13.284;2023-03-14T09:30:33;98564.38;;;13.42;61.83
31082;BME280;17737;52.586;13.284;2023-03-14T09:33:03;98573.78;;;13.79;60.00
31082;BME280;17737;52.586;13.284;2023-03-14T09:35:33;98558.72;;;13.55;60.08
31082;BME280;17737;52.586;13.284;2023-03-14T09:38:02;98572.66;;;13.64;60.03
31082;BME280;17737;52.586;13.284;2023-03-14T09:40:33;98563.31;;;13.83;59.32
31082;BME280;17737;52.586;13.284;2023-03-14T09:43:03;98559.00;;;13.70;59.02
31082;BME280;17737;52.586;13.284;2023-03-14T09:45:34;98562.03;;;13.46;60.08
31082;BME280;17737;52.586;13.284;2023-03-14T09:48:12;98570.56;;;13.26;60.54
31082;BME280;17737;52.586;13.284;2023-03-14T09:50:46;98562.09;;;13.11;60.92
31082;BME280;17737;52.586;13.284;2023-03-14T09:53:18;98563.97;;;13.10;60.58
31082;BME280;17737;52.586;13.284;2023-03-14T09:55:50;98559.72;;;13.14;60.09
31082;BME280;17737;52.586;13.284;2023-03-14T09:58:21;98575.22;;;12.96;60.41
31082;BME280;17737;52.586;13.284;2023-03-14T10:00:54;98569.28;;;13.05;60.28
31082;BME280;17737;52.586;13.284;2023-03-14T10:03:29;98574.91;;;13.15;59.74
31082;BME280;17737;52.586;13.284;2023-03-14T10:06:00;98565.63;;;13.11;59.74
31082;BME280;17737;52.586;13.284;2023-03-14T10:08:30;98581.84;;;13.11;59.71
31082;BME280;17737;52.586;13.284;2023-03-14T10:10:58;98578.66;;;13.26;59.67
31082;BME280;17737;52.586;13.284;2023-03-14T10:13:27;98583.47;;;13.24;59.65
31082;BME280;17737;52.586;13.284;2023-03-14T10:16:02;98577.84;;;13.26;59.59
31082;BME280;17737;52.586;13.284;2023-03-14T10:19:12;98579.91;;;13.35;59.68
31082;BME280;17737;52.586;13.284;2023-03-14T10:21:43;98580.75;;;13.36;59.97
31082;BME280;17737;52.586;13.284;2023-03-14T10:24:21;98570.75;;;13.24;59.78
31082;BME280;17737;52.586;13.284;2023-03-14T10:26:52;98582.16;;;13.38;60.13
31082;BME280;17737;52.586;13.284;2023-03-14T10:29:21;98584.75;;;13.33;60.27
31082;BME280;17737;52.586;13.284;2023-03-14T10:31:54;98587.22;;;13.35;60.75
31082;BME280;17737;52.586;13.284;2023-03-14T10:34:28;98583.81;;;13.39;59.64
31082;BME280;17737;52.586;13.284;2023-03-14T10:36:59;98581.34;;;13.38;59.93
31082;BME280;17737;52.586;13.284;2023-03-14T10:39:39;98581.72;;;13.30;59.92
31082;BME280;17737;52.586;13.284;2023-03-14T10:42:17;98578.88;;;13.24;60.41
31082;BME280;17737;52.586;13.284;2023-03-14T10:44:51;98574.25;;;13.37;59.83
31082;BME280;17737;52.586;13.284;2023-03-14T10:47:25;98569.22;;;13.29;59.81
31082;BME280;17737;52.586;13.284;2023-03-14T10:49:57;98575.81;;;13.33;59.86
31082;BME280;17737;52.586;13.284;2023-03-14T10:52:49;98578.88;;;13.24;59.00
31082;BME280;17737;52.586;13.284;2023-03-14T10:55:40;98577.72;;;13.20;59.72
31082;BME280;17737;52.586;13.284;2023-03-14T10:58:23;98585.63;;;13.10;59.69
31082;BME280;17737;52.586;13.284;2023-03-14T11:01:14;98583.03;;;13.15;59.95
31082;BME280;17737;52.586;13.284;2023-03-14T11:03:56;98583.03;;;13.15;59.52
31082;BME280;17737;52.586;13.284;2023-03-14T11:06:36;98578.31;;;13.11;59.67
31082;BME280;17737;52.586;13.284;2023-03-14T11:09:16;98576.78;;;13.15;59.69
31082;BME280;17737;52.586;13.284;2023-03-14T11:11:52;98570.09;;;13.06;59.68
31082;BME280;17737;52.586;13.284;2023-03-14T11:14:26;98577.41;;;13.05;60.17
31082;BME280;17737;52.586;13.284;2023-03-14T11:17:09;98583.84;;;13.04;60.08
31082;BME280;17737;52.586;13.284;2023-03-14T11:20:05;98585.59;;;12.99;59.56
31082;BME280;17737;52.586;13.284;2023-03-14T11:22:48;98573.50;;;13.01;59.72
31082;BME280;17737;52.586;13.284;2023-03-14T11:25:27;98575.94;;;13.14;60.10
31082;BME280;17737;52.586;13.284;2023-03-14T11:28:09;98574.81;;;13.10;60.37
31082;BME280;17737;52.586;13.284;2023-03-14T11:30:50;98577.25;;;13.12;59.85
31082;BME280;17737;52.586;13.284;2023-03-14T11:33:22;98571.25;;;13.10;59.64
31082;BME280;17737;52.586;13.284;2023-03-14T11:35:59;98574.06;;;13.15;59.63
31082;BME280;17737;52.586;13.284;2023-03-14T11:38:39;98570.91;;;13.06;59.97
31082;BME280;17737;52.586;13.284;2023-03-14T11:41:15;98566.00;;;13.03;60.23
31082;BME280;17737;52.586;13.284;2023-03-14T11:43:47;98579.50;;;13.03;60.27
31082;BME280;17737;52.586;13.284;2023-03-14T11:46:23;98579.94;;;13.00;61.19
31082;BME280;17737;52.586;13.284;2023-03-14T11:49:00;98576.06;;;12.85;62.51
31082;BME280;17737;52.586;13.284;2023-03-14T11:51:35;98562.69;;;13.01;61.95
31082;BME280;17737;52.586;13.284;2023-03-14T11:54:15;98562.69;;;13.01;61.59
31082;BME280;17737;52.586;13.284;2023-03-14T11:56:52;98562.31;;;12.98;62.67
31082;BME280;17737;52.586;13.284;2023-03-14T11:59:30;98578.66;;;12.91;62.07
31082;BME280;17737;52.586;13.284;2023-03-14T12:02:12;98580.53;;;12.91;62.87
31082;BME280;17737;52.586;13.284;2023-03-14T12:08:19;98569.91;;;11.90;70.26
31082;BME280;17737;52.586;13.284;2023-03-14T12:11:04;98568.16;;;11.96;69.11
31082;BME280;17737;52.586;13.284;2023-03-14T12:13:40;98562.00;;;12.07;68.24
31082;BME280;17737;52.586;13.284;2023-03-14T12:16:34;98560.84;;;12.15;68.81
31082;BME280;17737;52.586;13.284;2023-03-14T12:19:27;98565.34;;;12.32;67.47
31082;BME280;17737;52.586;13.284;2023-03-14T12:22:01;98555.84;;;12.53;66.64
31082;BME280;17737;52.586;13.284;2023-03-14T12:24:49;98553.16;;;12.76;65.81
31082;BME280;17737;52.586;13.284;2023-03-14T12:30:36;98548.78;;;13.33;63.96
31082;BME280;17737;52.586;13.284;2023-03-14T12:33:33;98543.47;;;13.38;62.78
31082;BME280;17737;52.586;13.284;2023-03-14T12:36:03;98553.31;;;13.55;62.59
31082;BME280;17737;52.586;13.284;2023-03-14T12:38:58;98556.91;;;13.61;61.40
31082;BME280;17737;52.586;13.284;2023-03-14T12:41:40;98552.34;;;13.61;62.26
31082;BME280;17737;52.586;13.284;2023-03-14T12:44:46;98544.50;;;13.37;62.59
31082;BME280;17737;52.586;13.284;2023-03-14T12:47:53;98555.88;;;13.10;62.98
31082;BME280;17737;52.586;13.284;2023-03-14T12:50:39;98560.44;;;12.98;64.32
31082;BME280;17737;52.586;13.284;2023-03-14T12:56:24;98557.97;;;12.97;65.50
31082;BME280;17737;52.586;13.284;2023-03-14T12:59:27;98558.91;;;12.91;67.24
31082;BME280;17737;52.586;13.284;2023-03-14T13:02:13;98547.75;;;12.64;68.98
31082;BME280;17737;52.586;13.284;2023-03-14T13:05:01;98543.63;;;12.27;71.65
31082;BME280;17737;52.586;13.284;2023-03-14T13:07:35;98548.19;;;12.27;72.64
31082;BME280;17737;52.586;13.284;2023-03-14T13:10:26;98542.31;;;12.30;71.69
31082;BME280;17737;52.586;13.284;2023-03-14T13:13:14;98533.53;;;12.57;70.60
31082;BME280;17737;52.586;13.284;2023-03-14T13:15:47;98533.19;;;12.77;70.17
31082;BME280;17737;52.586;13.284;2023-03-14T13:18:24;98527.38;;;13.19;69.23
31082;BME280;17737;52.586;13.284;2023-03-14T13:21:01;98525.97;;;13.29;68.53
31082;BME280;17737;52.586;13.284;2023-03-14T13:23:34;98516.13;;;13.23;68.31